Time;durP1;ratioP1;P1;durP2;ratioP2;P2;SDS_P1;SDS_P2;PMS_P1;PMS_P2;Temp;Humidity;BMP_temperature;BMP_pressure;BME280_temperature;BME280_humidity;BME280_pressure;Samples;Min_cycle;Max_cycle;Signal;HPM_P1;HPM_P2
2022/08/29 00:01:07;;;;;;;3.58;3.00;;;;;;;;;;12601058;28;20056;-75
2022/08/29 00:07:09;;;;;;;3.88;2.92;;;;;;;;;;12582697;28;20402;-75
2022/08/29 00:13:12;;;;;;;4.10;3.67;;;;;;;;;;12582319;28;20046;-75
2022/08/29 00:19:13;;;;;;;5.22;3.42;;;;;;;;;;12600146;28;20405;-75
2022/08/29 00:25:15;;;;;;;5.72;4.60;;;;;;;;;;12565290;28;20021;-75
2022/08/29 00:31:17;;;;;;;;;;;;;;;;;;12582373;28;20060;-75
2022/08/29 00:37:19;;;;;;;3.80;3.15;;;;;;;;;;12599238;28;19913;-75
2022/08/29 00:43:23;;;;;;;3.88;3.38;;;;;;;;;;12581039;28;20394;-75
2022/08/29 00:49:35;;;;;;;3.30;3.00;;;;;;;;;;12580864;28;20036;-75
2022/08/29 00:55:38;;;;;;;2.53;2.33;;;;;;;;;;12598215;28;20397;-75
2022/08/29 01:01:39;;;;;;;2.17;2.03;;;;;;;;;;12599209;28;20040;-74
2022/08/29 01:07:42;;;;;;;2.17;1.70;;;;;;;;;;12597671;28;20155;-75
2022/08/29 01:13:46;;;;;;;2.05;1.90;;;;;;;;;;12579762;28;20517;-75
2022/08/29 01:20:00;;;;;;;1.85;1.70;;;;;;;;;;12579402;28;20031;-75
2022/08/29 01:26:03;;;;;;;1.88;1.77;;;;;;;;;;12578942;28;20032;-75
2022/08/29 01:32:05;;;;;;;2.50;2.30;;;;;;;;;;12578986;28;20055;-75
2022/08/29 01:38:06;;;;;;;;;;;;;;;;;;12579211;28;20043;-75
2022/08/29 01:44:10;;;;;;;2.70;2.50;;;;;;;;;;12595774;28;19909;-75
2022/08/29 01:50:13;;;;;;;3.63;2.60;;;;;;;;;;12595656;28;20040;-75
2022/08/29 01:56:15;;;;;;;2.95;2.65;;;;;;;;;;12595378;28;20516;-75
2022/08/29 02:02:19;;;;;;;2.50;2.35;;;;;;;;;;12596356;28;20485;-75
2022/08/29 02:08:21;;;;;;;2.90;2.40;;;;;;;;;;12594907;28;20047;-75
2022/08/29 02:14:23;;;;;;;2.50;2.30;;;;;;;;;;12595010;28;20047;-75
2022/08/29 02:20:25;;;;;;;3.53;3.22;;;;;;;;;;12595465;28;20028;-74
2022/08/29 02:26:27;;;;;;;2.40;2.20;;;;;;;;;;12577250;28;20024;-75
2022/08/29 02:32:29;;;;;;;2.53;2.33;;;;;;;;;;12576900;28;20067;-75
2022/08/29 02:38:31;;;;;;;2.28;2.08;;;;;;;;;;12594864;28;20043;-75
2022/08/29 02:44:33;;;;;;;2.25;2.05;;;;;;;;;;12594579;28;20036;-76
2022/08/29 02:50:35;;;;;;;2.40;2.20;;;;;;;;;;12559859;28;20047;-75
2022/08/29 02:56:36;;;;;;;;;;;;;;;;;;12594481;28;20043;-75
2022/08/29 03:02:38;;;;;;;3.13;2.92;;;;;;;;;;12577086;28;19931;-75
2022/08/29 03:08:40;;;;;;;;;;;;;;;;;;12594431;28;20033;-75
2022/08/29 03:14:42;;;;;;;3.03;2.80;;;;;;;;;;12575452;28;19916;-75
2022/08/29 03:20:44;;;;;;;2.83;2.63;;;;;;;;;;12593329;28;20033;-74
2022/08/29 03:26:46;;;;;;;2.55;2.35;;;;;;;;;;12596028;28;20043;-74
2022/08/29 03:32:48;;;;;;;2.55;2.35;;;;;;;;;;12604452;28;20052;-74
2022/08/29 03:38:49;;;;;;;2.60;2.40;;;;;;;;;;12603065;28;20025;-74
2022/08/29 03:44:51;;;;;;;;;;;;;;;;;;12585275;28;20036;-74
2022/08/29 03:50:53;;;;;;;2.85;2.65;;;;;;;;;;12602439;28;20029;-75
2022/08/29 03:56:55;;;;;;;2.28;2.08;;;;;;;;;;12602047;28;20033;-74
2022/08/29 04:02:57;;;;;;;4.30;3.45;;;;;;;;;;12601789;28;20037;-75
2022/08/29 04:09:00;;;;;;;3.47;3.28;;;;;;;;;;12601382;28;20041;-75
2022/08/29 04:15:01;;;;;;;2.95;2.75;;;;;;;;;;12583554;28;20036;-75
2022/08/29 04:21:04;;;;;;;2.85;2.55;;;;;;;;;;12583396;28;20401;-75
2022/08/29 04:27:05;;;;;;;3.63;3.05;;;;;;;;;;12600622;28;20048;-75
2022/08/29 04:33:07;;;;;;;3.33;3.03;;;;;;;;;;12597978;28;20494;-75
2022/08/29 04:39:09;;;;;;;3.55;3.25;;;;;;;;;;12579105;28;20036;-76
2022/08/29 04:45:11;;;;;;;;;;;;;;;;;;12597726;28;20036;-75
2022/08/29 04:51:13;;;;;;;3.73;3.43;;;;;;;;;;12597335;28;20286;-75
2022/08/29 04:57:14;;;;;;;4.05;3.38;;;;;;;;;;12597040;28;20470;-75
2022/08/29 05:03:16;;;;;;;;;;;;;;;;;;12578941;28;20040;-75
2022/08/29 05:09:18;;;;;;;3.03;2.83;;;;;;;;;;12578539;28;19908;-75
2022/08/29 05:15:21;;;;;;;4.05;3.38;;;;;;;;;;12595901;28;20040;-75
2022/08/29 05:21:30;;;;;;;3.15;2.95;;;;;;;;;;12577662;28;20041;-75
2022/08/29 05:27:32;;;;;;;3.25;3.05;;;;;;;;;;12595551;28;20039;-76
2022/08/29 05:33:34;;;;;;;4.07;3.58;;;;;;;;;;12556060;28;1179194;-75
2022/08/29 05:39:35;;;;;;;;;;;;;;;;;;12597871;28;20402;-75
2022/08/29 05:45:37;;;;;;;3.73;3.43;;;;;;;;;;12579233;28;20262;-75
2022/08/29 05:51:39;;;;;;;;;;;;;;;;;;12596077;28;20037;-75
2022/08/29 05:57:40;;;;;;;3.47;3.17;;;;;;;;;;12596889;28;19908;-74
2022/08/29 06:03:42;;;;;;;3.17;2.88;;;;;;;;;;12596104;28;20036;-74
2022/08/29 06:09:44;;;;;;;3.50;3.20;;;;;;;;;;12578026;28;20036;-74
2022/08/29 06:15:46;;;;;;;6.38;4.15;;;;;;;;;;12595173;28;20049;-76
2022/08/29 06:21:47;;;;;;;;;;;;;;;;;;12595644;28;20033;-76
2022/08/29 06:27:52;;;;;;;4.27;3.93;;;;;;;;;;12577062;28;19931;-75
2022/08/29 06:33:58;;;;;;;5.05;4.53;;;;;;;;;;12576957;28;20394;-76
2022/08/29 06:39:59;;;;;;;3.63;3.33;;;;;;;;;;12577408;28;20036;-75
2022/08/29 06:46:01;;;;;;;;;;;;;;;;;;12594819;28;20037;-75
2022/08/29 06:52:03;;;;;;;3.83;3.40;;;;;;;;;;12578047;28;19924;-75
2022/08/29 06:58:05;;;;;;;3.40;3.20;;;;;;;;;;12552002;28;20134;-75
2022/08/29 07:04:06;;;;;;;;;;;;;;;;;;12562788;28;20490;-75
2022/08/29 07:10:11;;;;;;;4.40;4.00;;;;;;;;;;12563189;28;19909;-75
2022/08/29 07:16:15;;;;;;;4.13;3.65;;;;;;;;;;12525987;28;20044;-74
2022/08/29 07:22:17;;;;;;;4.22;3.88;;;;;;;;;;12557245;28;20032;-74
2022/08/29 07:28:18;;;;;;;;;;;;;;;;;;12547275;28;20049;-74
2022/08/29 07:34:20;;;;;;;4.47;4.17;;;;;;;;;;12590103;28;19928;-75
2022/08/29 07:40:22;;;;;;;4.38;3.97;;;;;;;;;;12540770;28;20024;-75
2022/08/29 07:46:25;;;;;;;;;;;;;;;;;;12530602;28;20025;-75
2022/08/29 07:52:28;;;;;;;4.80;4.40;;;;;;;;;;12534438;28;19924;-75
2022/08/29 07:58:30;;;;;;;3.33;3.03;;;;;;;;;;12555167;28;20422;-75
2022/08/29 08:04:31;;;;;;;3.88;3.58;;;;;;;;;;12588015;28;20044;-75
2022/08/29 08:10:35;;;;;;;5.10;4.70;;;;;;;;;;12592188;28;20025;-75
2022/08/29 08:16:37;;;;;;;5.70;5.20;;;;;;;;;;12583213;28;20508;-75
2022/08/29 08:22:39;;;;;;;4.70;4.25;;;;;;;;;;12580825;28;20032;-74
2022/08/29 08:28:41;;;;;;;3.97;3.65;;;;;;;;;;12604143;28;20055;-76
2022/08/29 08:34:43;;;;;;;4.00;3.65;;;;;;;;;;12581822;28;20041;-74
2022/08/29 08:40:44;;;;;;;;;;;;;;;;;;12578960;28;20048;-76
2022/08/29 08:46:48;;;;;;;4.40;3.57;;;;;;;;;;12557452;28;19913;-75
2022/08/29 08:52:58;;;;;;;4.55;4.15;;;;;;;;;;12532534;28;20063;-75
2022/08/29 08:59:06;;;;;;;4.82;4.32;;;;;;;;;;12532633;28;20037;-75
2022/08/29 09:05:16;;;;;;;6.28;4.68;;;;;;;;;;12558312;28;20048;-76
2022/08/29 09:11:38;;;;;;;3.40;3.13;;;;;;;;;;12543611;28;20104;-74
2022/08/29 09:17:42;;;;;;;4.38;4.05;;;;;;;;;;12549329;28;20047;-76
2022/08/29 09:23:44;;;;;;;3.20;3.00;;;;;;;;;;12579429;28;20032;-75
2022/08/29 09:29:47;;;;;;;3.33;3.03;;;;;;;;;;12580298;28;20379;-75
2022/08/29 09:35:51;;;;;;;2.67;2.47;;;;;;;;;;12579998;28;20052;-76
2022/08/29 09:41:54;;;;;;;2.95;2.72;;;;;;;;;;12597600;28;20028;-75
2022/08/29 09:48:13;;;;;;;1.85;1.60;;;;;;;;;;12597207;28;20040;-76
2022/08/29 09:54:27;;;;;;;1.67;1.58;;;;;;;;;;12597021;28;20052;-75
2022/08/29 10:00:36;;;;;;;2.03;1.73;;;;;;;;;;12597545;28;20047;-76
2022/08/29 10:06:39;;;;;;;1.83;1.73;;;;;;;;;;12578185;28;20036;-76
2022/08/29 10:12:47;;;;;;;2.22;1.92;;;;;;;;;;12577900;28;20048;-77
2022/08/29 10:18:51;;;;;;;1.70;1.60;;;;;;;;;;12578506;28;20032;-76
2022/08/29 10:24:59;;;;;;;2.00;1.85;;;;;;;;;;12577422;28;20032;-75
2022/08/29 10:31:04;;;;;;;1.55;1.45;;;;;;;;;;12594978;28;20048;-75
2022/08/29 10:37:10;;;;;;;1.67;1.58;;;;;;;;;;12559690;28;20047;-76
2022/08/29 10:43:15;;;;;;;1.70;1.60;;;;;;;;;;12576743;28;20035;-76
2022/08/29 10:49:36;;;;;;;1.77;1.67;;;;;;;;;;12576207;28;20385;-76
2022/08/29 10:55:53;;;;;;;1.90;1.60;;;;;;;;;;12593535;28;20394;-76
2022/08/29 11:02:00;;;;;;;1.83;1.65;;;;;;;;;;12595047;28;20490;-76
2022/08/29 11:08:04;;;;;;;1.58;1.48;;;;;;;;;;12576045;28;20041;-76
2022/08/29 11:14:08;;;;;;;1.65;1.48;;;;;;;;;;12575589;28;20044;-75
2022/08/29 11:20:17;;;;;;;1.50;1.40;;;;;;;;;;12575167;28;20036;-76
2022/08/29 11:26:21;;;;;;;2.15;1.30;;;;;;;;;;12575471;28;20028;-75
2022/08/29 11:32:47;;;;;;;1.70;1.60;;;;;;;;;;12558921;28;20056;-75
2022/08/29 11:39:27;;;;;;;1.35;1.25;;;;;;;;;;12580284;28;20397;-76
2022/08/29 11:45:34;;;;;;;1.67;1.57;;;;;;;;;;12342113;28;20053;-76
2022/08/29 11:51:38;;;;;;;1.85;1.75;;;;;;;;;;12583849;28;20059;-74
2022/08/29 11:57:47;;;;;;;1.67;1.58;;;;;;;;;;12602306;28;20029;-75
2022/08/29 12:03:49;;;;;;;1.40;1.27;;;;;;;;;;12583460;28;20032;-75
2022/08/29 12:09:56;;;;;;;1.42;1.33;;;;;;;;;;12582804;28;20041;-74
2022/08/29 12:16:04;;;;;;;1.77;1.30;;;;;;;;;;12564021;28;20051;-75
2022/08/29 12:22:06;;;;;;;1.30;1.20;;;;;;;;;;12566650;28;20037;-76
2022/08/29 12:28:19;;;;;;;1.20;1.10;;;;;;;;;;12600624;28;20497;-75
2022/08/29 12:34:20;;;;;;;1.30;1.20;;;;;;;;;;12583328;28;20036;-75
2022/08/29 12:40:45;;;;;;;1.48;1.38;;;;;;;;;;12582514;28;20039;-76
2022/08/29 12:46:49;;;;;;;0.88;0.88;;;;;;;;;;12600061;28;20033;-76
2022/08/29 12:52:59;;;;;;;1.77;1.67;;;;;;;;;;12564978;28;20044;-75
2022/08/29 12:59:03;;;;;;;1.40;1.30;;;;;;;;;;12565543;28;20036;-75
2022/08/29 13:05:17;;;;;;;1.10;1.10;;;;;;;;;;12599225;28;20040;-75
2022/08/29 13:11:21;;;;;;;1.58;1.48;;;;;;;;;;12581261;28;20032;-75
2022/08/29 13:17:25;;;;;;;1.65;1.55;;;;;;;;;;12564537;28;20047;-75
2022/08/29 13:23:28;;;;;;;1.70;1.60;;;;;;;;;;12580513;28;20059;-75
2022/08/29 13:29:36;;;;;;;1.80;1.70;;;;;;;;;;12580472;28;20067;-75
2022/08/29 13:35:37;;;;;;;1.02;1.02;;;;;;;;;;12597152;28;20233;-75
2022/08/29 13:41:39;;;;;;;1.58;1.48;;;;;;;;;;12597370;28;20482;-76
2022/08/29 13:47:51;;;;;;;1.38;1.25;;;;;;;;;;12579449;28;20028;-75
2022/08/29 13:53:53;;;;;;;2.13;1.73;;;;;;;;;;12578666;28;20394;-75
2022/08/29 13:59:55;;;;;;;2.40;2.25;;;;;;;;;;12597196;28;20032;-74
2022/08/29 14:05:57;;;;;;;2.88;1.90;;;;;;;;;;12595774;28;20045;-76
2022/08/29 14:11:59;;;;;;;2.45;1.50;;;;;;;;;;12577213;28;20047;-75
2022/08/29 14:18:01;;;;;;;1.70;1.60;;;;;;;;;;12577778;28;20383;-75
2022/08/29 14:24:02;;;;;;;1.17;1.15;;;;;;;;;;12595418;28;20037;-75
2022/08/29 14:30:05;;;;;;;1.40;1.30;;;;;;;;;;12595002;28;20044;-75
2022/08/29 14:36:27;;;;;;;1.70;1.60;;;;;;;;;;12594277;28;20061;-74
2022/08/29 14:42:29;;;;;;;1.90;1.40;;;;;;;;;;12594685;28;20036;-76
2022/08/29 14:48:30;;;;;;;2.38;1.50;;;;;;;;;;12560242;28;20036;-75
2022/08/29 14:54:33;;;;;;;2.35;1.45;;;;;;;;;;12559514;28;20041;-76
2022/08/29 15:00:34;;;;;;;1.40;1.30;;;;;;;;;;12594822;28;20036;-76
2022/08/29 15:06:36;;;;;;;2.25;1.90;;;;;;;;;;12559904;28;20043;-76
2022/08/29 15:12:38;;;;;;;1.38;1.27;;;;;;;;;;12575877;28;20048;-76
2022/08/29 15:18:40;;;;;;;1.23;1.20;;;;;;;;;;12593851;28;20393;-75
2022/08/29 15:24:42;;;;;;;1.23;1.13;;;;;;;;;;12602073;28;20036;-76
2022/08/29 15:30:46;;;;;;;1.92;1.80;;;;;;;;;;12585964;28;20063;-75
2022/08/29 15:36:47;;;;;;;1.48;1.38;;;;;;;;;;12585674;28;20256;-75
2022/08/29 15:42:49;;;;;;;1.70;1.30;;;;;;;;;;12602940;28;20043;-75
2022/08/29 15:48:51;;;;;;;1.27;1.17;;;;;;;;;;12584848;28;20044;-74
2022/08/29 15:54:53;;;;;;;1.40;1.30;;;;;;;;;;12602373;28;20040;-74
2022/08/29 16:00:55;;;;;;;1.98;1.42;;;;;;;;;;12584261;28;20036;-75
2022/08/29 16:06:57;;;;;;;1.05;1.00;;;;;;;;;;12601475;28;20509;-76
2022/08/29 16:12:58;;;;;;;2.40;1.30;;;;;;;;;;12601019;28;20041;-76
2022/08/29 16:19:04;;;;;;;1.35;1.23;;;;;;;;;;12601301;28;20393;-76
2022/08/29 16:25:07;;;;;;;0.90;0.90;;;;;;;;;;12600363;28;20040;-76
2022/08/29 16:31:09;;;;;;;1.17;1.08;;;;;;;;;;12566449;28;20517;-75
2022/08/29 16:37:10;;;;;;;1.40;1.30;;;;;;;;;;12599913;28;20041;-76
2022/08/29 16:43:13;;;;;;;1.40;1.30;;;;;;;;;;12599976;28;20036;-73
2022/08/29 16:49:15;;;;;;;1.63;1.35;;;;;;;;;;12600000;28;20041;-75
2022/08/29 16:55:16;;;;;;;1.52;1.30;;;;;;;;;;12581580;28;20032;-75
2022/08/29 17:01:18;;;;;;;1.35;1.25;;;;;;;;;;12582025;28;20032;-76
2022/08/29 17:07:20;;;;;;;1.30;1.20;;;;;;;;;;12599008;28;20063;-75
2022/08/29 17:19:25;;;;;;;1.33;1.23;;;;;;;;;;12580846;28;20033;-77
2022/08/29 17:25:28;;;;;;;1.42;1.27;;;;;;;;;;12563801;28;20036;-76
2022/08/29 17:31:30;;;;;;;2.47;1.30;;;;;;;;;;12597693;28;20056;-75
2022/08/29 17:37:32;;;;;;;1.70;1.20;;;;;;;;;;12579761;28;20035;-75
2022/08/29 17:43:35;;;;;;;2.22;1.10;;;;;;;;;;12579126;28;20055;-75
2022/08/29 17:49:37;;;;;;;2.35;1.30;;;;;;;;;;12596850;28;20036;-75
2022/08/29 17:55:39;;;;;;;1.58;1.30;;;;;;;;;;12596794;28;20044;-76
2022/08/29 18:01:41;;;;;;;1.45;1.30;;;;;;;;;;12580727;28;20025;-76
2022/08/29 18:07:43;;;;;;;3.33;1.77;;;;;;;;;;12562082;28;20065;-76
2022/08/29 18:13:46;;;;;;;1.67;1.40;;;;;;;;;;12578266;28;20060;-76
2022/08/29 18:19:48;;;;;;;1.92;1.30;;;;;;;;;;12577652;28;20041;-76
2022/08/29 18:25:49;;;;;;;1.80;1.52;;;;;;;;;;12595498;28;20036;-74
2022/08/29 18:31:51;;;;;;;1.30;1.20;;;;;;;;;;12576859;28;20044;-76
2022/08/29 18:37:53;;;;;;;1.60;1.50;;;;;;;;;;12577613;28;20497;-75
2022/08/29 18:43:54;;;;;;;1.98;1.42;;;;;;;;;;12595029;28;20033;-75
2022/08/29 18:56:38;;;;;;;;;;;;;;;;;;12473283;28;20056;-76
2022/08/29 19:02:39;;;;;;;1.70;1.60;;;;;;;;;;12575083;28;20278;-76
2022/08/29 19:08:41;;;;;;;1.35;1.25;;;;;;;;;;12575944;28;20036;-75
2022/08/29 19:14:44;;;;;;;1.55;1.45;;;;;;;;;;12593868;28;20044;-77
2022/08/29 19:21:01;;;;;;;1.20;1.17;;;;;;;;;;12559257;28;20029;-76
2022/08/29 19:27:03;;;;;;;1.92;1.42;;;;;;;;;;12593246;28;20397;-75
2022/08/29 19:33:06;;;;;;;2.28;2.08;;;;;;;;;;12575416;28;20064;-75
2022/08/29 19:39:07;;;;;;;1.95;1.83;;;;;;;;;;12593244;28;20037;-75
2022/08/29 19:45:10;;;;;;;1.70;1.60;;;;;;;;;;12575408;28;20036;-75
2022/08/29 19:51:13;;;;;;;2.92;1.95;;;;;;;;;;12593055;28;20028;-76
2022/08/29 19:57:15;;;;;;;2.00;1.90;;;;;;;;;;12570977;28;20037;-74
2022/08/29 20:03:17;;;;;;;1.95;1.80;;;;;;;;;;12588650;28;20044;-75
2022/08/29 20:09:19;;;;;;;1.75;1.65;;;;;;;;;;12577518;28;20047;-75
2022/08/29 20:15:22;;;;;;;3.63;2.05;;;;;;;;;;12583904;28;20049;-75
2022/08/29 20:21:24;;;;;;;2.90;2.00;;;;;;;;;;12601208;28;20490;-75
2022/08/29 20:27:26;;;;;;;2.47;2.28;;;;;;;;;;12600441;28;20033;-76
2022/08/29 20:33:28;;;;;;;2.45;2.10;;;;;;;;;;12566314;28;20068;-75
2022/08/29 20:39:30;;;;;;;2.65;2.40;;;;;;;;;;12582744;28;20036;-75
2022/08/29 20:45:32;;;;;;;5.30;3.05;;;;;;;;;;12565533;28;20028;-75
2022/08/29 20:51:35;;;;;;;2.17;1.95;;;;;;;;;;12600953;28;20050;-76
2022/08/29 20:57:38;;;;;;;3.83;3.10;;;;;;;;;;12600313;28;20025;-76
2022/08/29 21:09:59;;;;;;;2.55;2.35;;;;;;;;;;12581185;28;20405;-75
2022/08/29 21:16:03;;;;;;;2.63;2.42;;;;;;;;;;12598831;28;20045;-76
2022/08/29 21:22:06;;;;;;;3.40;2.67;;;;;;;;;;12598261;28;20040;-74
2022/08/29 21:28:08;;;;;;;2.85;2.65;;;;;;;;;;12580423;28;20028;-75
2022/08/29 21:34:09;;;;;;;2.70;2.50;;;;;;;;;;12598600;28;20049;-75
2022/08/29 21:40:11;;;;;;;3.03;2.75;;;;;;;;;;12597692;28;20051;-75
2022/08/29 21:46:21;;;;;;;2.80;2.60;;;;;;;;;;12579643;28;20036;-75
2022/08/29 21:52:23;;;;;;;2.75;2.42;;;;;;;;;;12596590;28;20047;-75
2022/08/29 21:58:27;;;;;;;3.38;3.08;;;;;;;;;;12596673;28;20202;-75
2022/08/29 22:04:31;;;;;;;2.22;2.13;;;;;;;;;;12578511;28;20497;-74
2022/08/29 22:10:35;;;;;;;3.28;3.00;;;;;;;;;;12578143;28;20036;-75
2022/08/29 22:16:36;;;;;;;3.70;3.40;;;;;;;;;;12595647;28;20064;-74
2022/08/29 22:22:39;;;;;;;3.95;3.65;;;;;;;;;;12577713;28;20409;-75
2022/08/29 22:28:43;;;;;;;4.32;3.85;;;;;;;;;;12577149;28;20410;-75
2022/08/29 22:34:45;;;;;;;3.45;3.15;;;;;;;;;;12560282;28;20044;-74
2022/08/29 22:40:47;;;;;;;2.83;2.63;;;;;;;;;;12576960;28;20394;-75
2022/08/29 22:46:51;;;;;;;3.00;2.78;;;;;;;;;;12594877;28;20500;-75
2022/08/29 22:52:56;;;;;;;2.78;2.42;;;;;;;;;;12594403;28;20040;-75
2022/08/29 22:58:58;;;;;;;2.42;2.20;;;;;;;;;;12594454;28;20055;-75
2022/08/29 23:05:00;;;;;;;2.22;2.03;;;;;;;;;;12594266;28;20417;-75
2022/08/29 23:11:02;;;;;;;2.42;2.22;;;;;;;;;;12593736;28;20032;-75
2022/08/29 23:17:03;;;;;;;;;;;;;;;;;;12576437;28;20512;-75
2022/08/29 23:23:05;;;;;;;2.15;1.90;;;;;;;;;;12593824;28;20392;-75
2022/08/29 23:29:07;;;;;;;3.45;2.13;;;;;;;;;;12593393;28;20037;-75
2022/08/29 23:35:08;;;;;;;;;;;;;;;;;;12593811;28;20056;-75
2022/08/29 23:41:12;;;;;;;2.65;2.40;;;;;;;;;;12577053;28;20361;-75
2022/08/29 23:47:14;;;;;;;2.70;2.50;;;;;;;;;;12584200;28;20039;-75
2022/08/29 23:53:15;;;;;;;;;;;;;;;;;;12603002;28;20048;-75
